createdAt,value
2018-05-23T00:00:21.696Z,98.19
2018-05-23T00:01:21.721Z,98.96
2018-05-23T00:02:21.740Z,99.58
2018-05-23T00:03:21.769Z,99.99
2018-05-23T00:04:21.794Z,99.25
2018-05-23T00:05:21.843Z,98.77
2018-05-23T00:06:21.892Z,98.96
2018-05-23T00:07:21.857Z,98.96
2018-05-23T00:08:21.884Z,99.34
2018-05-23T00:09:21.906Z,99.25
2018-05-23T00:10:21.932Z,99.99
2018-05-23T00:11:21.965Z,99.99
2018-05-23T00:12:21.988Z,99.99
2018-05-23T00:13:22.009Z,99.96
2018-05-23T00:14:22.024Z,99.99
2018-05-23T00:15:22.059Z,99.68
2018-05-23T00:16:22.083Z,99.77
2018-05-23T00:17:22.111Z,98.96
2018-05-23T00:18:22.130Z,98.67
2018-05-23T00:19:22.149Z,98.77
2018-05-23T00:20:22.170Z,98.96
2018-05-23T00:21:22.205Z,98.77
2018-05-23T00:22:22.227Z,99.25
2018-05-23T00:23:22.249Z,99.44
2018-05-23T00:24:22.280Z,99.99
2018-05-23T00:25:22.292Z,99.99
2018-05-23T00:26:22.322Z,99.99
2018-05-23T00:27:22.350Z,99.99
2018-05-23T00:28:22.380Z,99.99
2018-05-23T00:29:22.398Z,99.99
2018-05-23T00:30:22.417Z,99.99
2018-05-23T00:31:22.439Z,99.99
2018-05-23T00:32:22.472Z,99.99
2018-05-23T00:33:22.494Z,99.10
2018-05-23T00:34:22.511Z,99.58
2018-05-23T00:35:22.540Z,99.49
2018-05-23T00:36:22.569Z,99.87
2018-05-23T00:37:22.584Z,99.01
2018-05-23T00:38:22.609Z,99.44
2018-05-23T00:39:22.634Z,99.68
2018-05-23T00:40:22.683Z,99.20
2018-05-23T00:41:22.690Z,98.72
2018-05-23T00:42:22.705Z,99.05
2018-05-23T00:43:22.725Z,98.72
2018-05-23T00:44:22.767Z,98.33
2018-05-23T00:45:22.782Z,98.72
2018-05-23T00:46:22.804Z,98.82
2018-05-23T00:47:22.834Z,98.62
2018-05-23T00:48:22.867Z,98.72
2018-05-23T00:49:22.883Z,99.58
2018-05-23T00:50:22.959Z,99.20
2018-05-23T00:51:22.933Z,99.96
2018-05-23T00:52:22.958Z,99.29
2018-05-23T00:53:22.973Z,98.62
2018-05-23T00:54:22.998Z,98.91
2018-05-23T00:55:23.021Z,98.91
2018-05-23T00:56:23.043Z,98.05
2018-05-23T00:57:23.072Z,99.99
2018-05-23T00:58:23.107Z,99.49
2018-05-23T00:59:23.120Z,99.10
2018-05-23T01:00:23.143Z,99.39
2018-05-23T01:01:23.181Z,99.77
2018-05-23T01:02:23.191Z,99.99
2018-05-23T01:03:23.209Z,99.99
2018-05-23T01:04:23.322Z,99.99
2018-05-23T01:05:23.312Z,99.99
2018-05-23T01:06:23.307Z,99.99
2018-05-23T01:07:23.310Z,99.99
2018-05-23T01:08:23.332Z,99.99
2018-05-23T01:09:23.359Z,99.99
2018-05-23T01:10:23.382Z,99.99
2018-05-23T01:11:23.406Z,99.99
2018-05-23T01:12:23.426Z,99.99
2018-05-23T01:13:23.462Z,99.99
2018-05-23T01:14:23.478Z,99.99
2018-05-23T01:15:23.502Z,99.99
2018-05-23T01:16:23.526Z,99.58
2018-05-23T01:17:23.623Z,99.99
2018-05-23T01:18:23.573Z,99.99
2018-05-23T01:19:23.599Z,99.99
2018-05-23T01:20:23.631Z,99.99
2018-05-23T01:21:23.648Z,99.99
2018-05-23T01:22:23.675Z,99.99
2018-05-23T01:23:23.700Z,99.99
2018-05-23T01:24:23.721Z,99.99
2018-05-23T01:25:23.740Z,99.99
2018-05-23T01:26:23.764Z,99.99
2018-05-23T01:27:23.797Z,99.99
2018-05-23T01:28:23.818Z,99.99
2018-05-23T01:29:23.846Z,99.99
2018-05-23T01:30:23.873Z,99.99
2018-05-23T01:31:23.887Z,99.99
2018-05-23T01:32:23.911Z,99.99
2018-05-23T01:33:23.939Z,99.99
2018-05-23T01:34:23.966Z,99.99
2018-05-23T01:35:23.984Z,99.99
2018-05-23T01:36:24.008Z,99.99
2018-05-23T01:37:24.032Z,99.99
2018-05-23T01:38:24.144Z,99.99
2018-05-23T01:39:24.080Z,99.99
2018-05-23T01:40:24.105Z,99.99
2018-05-23T01:41:24.152Z,99.99
2018-05-23T01:42:24.152Z,99.99
2018-05-23T01:43:24.176Z,99.99
2018-05-23T01:44:24.198Z,99.99
2018-05-23T01:45:24.222Z,99.99
2018-05-23T01:46:24.275Z,99.99
2018-05-23T01:47:24.272Z,99.99
2018-05-23T01:48:24.301Z,99.99
2018-05-23T01:49:24.322Z,99.99
2018-05-23T01:50:24.340Z,99.99
2018-05-23T01:51:24.415Z,99.99
2018-05-23T01:52:24.393Z,99.99
2018-05-23T01:53:24.450Z,99.99
2018-05-23T01:54:24.438Z,99.99
2018-05-23T01:55:24.460Z,99.99
2018-05-23T01:56:24.485Z,99.99
2018-05-23T01:57:24.513Z,99.99
2018-05-23T01:58:24.535Z,99.99
2018-05-23T01:59:24.568Z,99.99
2018-05-23T02:00:24.582Z,99.99
2018-05-23T02:01:24.612Z,99.99
2018-05-23T02:02:24.630Z,99.99
2018-05-23T02:03:24.656Z,99.99
2018-05-23T02:04:24.690Z,99.99
2018-05-23T02:05:24.702Z,99.99
2018-05-23T02:06:24.728Z,99.99
2018-05-23T02:07:24.752Z,99.99
2018-05-23T02:08:24.774Z,99.99
2018-05-23T02:09:24.801Z,99.99
2018-05-23T02:10:24.831Z,99.99
2018-05-23T02:11:24.856Z,99.99
2018-05-23T02:12:24.868Z,99.99
2018-05-23T02:13:24.899Z,99.99
2018-05-23T02:14:24.927Z,99.99
2018-05-23T02:15:24.939Z,99.99
2018-05-23T02:16:24.970Z,99.99
2018-05-23T02:17:24.996Z,99.99
2018-05-23T02:18:25.010Z,99.99
2018-05-23T02:19:25.047Z,99.99
2018-05-23T02:20:25.126Z,99.99
2018-05-23T02:21:25.091Z,99.99
2018-05-23T02:22:25.117Z,99.99
2018-05-23T02:23:25.135Z,99.99
2018-05-23T02:24:25.157Z,99.99
2018-05-23T02:25:25.185Z,99.99
2018-05-23T02:26:25.202Z,99.99
2018-05-23T02:27:25.233Z,99.99
2018-05-23T02:28:25.256Z,99.99
2018-05-23T02:29:25.286Z,99.99
2018-05-23T02:30:25.312Z,99.99
2018-05-23T02:31:25.329Z,99.99
2018-05-23T02:32:25.354Z,99.99
2018-05-23T02:33:25.380Z,99.99
2018-05-23T02:34:25.403Z,99.99
2018-05-23T02:35:25.431Z,99.99
2018-05-23T02:36:25.447Z,99.99
2018-05-23T02:37:25.475Z,99.99
2018-05-23T02:38:25.492Z,99.99
2018-05-23T02:39:25.536Z,99.99
2018-05-23T02:40:25.541Z,99.99
2018-05-23T02:41:25.570Z,99.99
2018-05-23T02:42:25.592Z,99.99
2018-05-23T02:43:25.618Z,99.99
2018-05-23T02:44:25.688Z,99.99
2018-05-23T02:45:25.660Z,99.99
2018-05-23T02:46:25.690Z,99.99
2018-05-23T02:47:25.711Z,99.99
2018-05-23T02:48:25.731Z,99.99
2018-05-23T02:49:25.764Z,99.99
2018-05-23T02:50:25.800Z,99.99
2018-05-23T02:51:25.805Z,99.99
2018-05-23T02:52:25.841Z,99.99
2018-05-23T02:53:25.860Z,99.99
2018-05-23T02:54:25.880Z,99.99
2018-05-23T02:55:25.904Z,99.99
2018-05-23T02:56:25.931Z,99.99
2018-05-23T02:57:25.955Z,99.99
2018-05-23T02:58:25.975Z,99.99
2018-05-23T02:59:25.997Z,99.99
2018-05-23T03:00:26.016Z,99.99
2018-05-23T03:01:26.046Z,99.99
2018-05-23T03:02:26.072Z,99.99
2018-05-23T03:03:26.095Z,99.99
2018-05-23T03:04:26.121Z,99.99
2018-05-23T03:05:26.141Z,99.99
2018-05-23T03:06:26.160Z,99.99
2018-05-23T03:07:26.191Z,99.99
2018-05-23T03:08:26.208Z,99.99
2018-05-23T03:09:26.241Z,99.99
2018-05-23T03:10:26.263Z,99.99
2018-05-23T03:11:26.282Z,99.99
2018-05-23T03:12:26.307Z,99.99
2018-05-23T03:13:26.333Z,99.99
2018-05-23T03:14:26.368Z,99.99
2018-05-23T03:15:26.382Z,99.99
2018-05-23T03:16:26.448Z,99.99
2018-05-23T03:17:26.429Z,99.99
2018-05-23T03:18:26.452Z,99.99
2018-05-23T03:19:26.479Z,99.99
2018-05-23T03:20:26.503Z,99.99
2018-05-23T03:21:26.532Z,99.99
2018-05-23T03:22:26.561Z,99.99
2018-05-23T03:23:26.577Z,99.99
2018-05-23T03:24:26.601Z,99.99
2018-05-23T03:25:26.625Z,99.99
2018-05-23T03:26:26.641Z,99.99
2018-05-23T03:27:26.683Z,99.99
2018-05-23T03:28:26.691Z,99.99
2018-05-23T03:29:26.720Z,99.99
2018-05-23T03:30:26.740Z,99.99
2018-05-23T03:31:26.792Z,99.99
2018-05-23T03:32:26.789Z,99.99
2018-05-23T03:33:26.809Z,99.99
2018-05-23T03:34:26.841Z,99.99
2018-05-23T03:35:26.860Z,99.99
2018-05-23T03:36:26.890Z,99.99
2018-05-23T03:37:26.915Z,99.99
2018-05-23T03:38:26.932Z,99.99
2018-05-23T03:39:26.950Z,99.99
2018-05-23T03:40:26.983Z,99.99
2018-05-23T03:41:27.004Z,99.99
2018-05-23T03:42:27.030Z,99.99
2018-05-23T03:43:27.058Z,99.99
2018-05-23T03:44:27.083Z,99.99
2018-05-23T03:45:27.100Z,99.99
2018-05-23T03:46:27.131Z,99.99
2018-05-23T03:47:27.148Z,99.99
2018-05-23T03:48:27.175Z,99.99
2018-05-23T03:49:27.195Z,99.99
2018-05-23T03:50:27.221Z,99.99
2018-05-23T03:51:27.238Z,99.99
2018-05-23T03:52:27.268Z,99.99
2018-05-23T03:53:27.291Z,99.99
2018-05-23T03:54:27.315Z,99.99
2018-05-23T03:55:27.344Z,99.99
2018-05-23T03:56:27.366Z,99.99
2018-05-23T03:57:27.385Z,99.99
2018-05-23T03:58:27.404Z,99.99
2018-05-23T03:59:27.434Z,99.99
2018-05-23T04:00:27.460Z,99.99
2018-05-23T04:01:27.482Z,99.99
2018-05-23T04:02:27.504Z,99.99
2018-05-23T04:03:27.527Z,99.99
2018-05-23T04:04:27.559Z,99.99
2018-05-23T04:05:27.572Z,99.99
2018-05-23T04:06:27.602Z,99.99
2018-05-23T04:07:27.625Z,99.99
2018-05-23T04:08:27.644Z,99.99
2018-05-23T04:09:27.677Z,99.99
2018-05-23T04:10:27.709Z,99.99
2018-05-23T04:11:27.780Z,99.99
2018-05-23T04:12:27.749Z,99.99
2018-05-23T04:13:27.770Z,99.99
2018-05-23T04:14:27.789Z,99.99
2018-05-23T04:15:27.896Z,99.99
2018-05-23T04:16:27.839Z,99.99
2018-05-23T04:17:27.861Z,99.99
2018-05-23T04:18:27.892Z,99.99
2018-05-23T04:19:27.913Z,99.99
2018-05-23T04:20:27.930Z,99.99
2018-05-23T04:21:27.952Z,99.99
2018-05-23T04:22:27.997Z,99.99
2018-05-23T04:23:28.007Z,99.99
2018-05-23T04:24:28.036Z,99.99
2018-05-23T04:25:28.060Z,99.99
2018-05-23T04:26:28.087Z,99.99
2018-05-23T04:27:28.102Z,99.99
2018-05-23T04:28:28.126Z,99.99
2018-05-23T04:29:28.153Z,99.99
2018-05-23T04:30:28.179Z,99.99
2018-05-23T04:31:28.204Z,99.99
2018-05-23T04:32:28.237Z,99.99
2018-05-23T04:33:28.250Z,99.99
2018-05-23T04:34:28.276Z,99.99
2018-05-23T04:35:28.293Z,99.99
2018-05-23T04:36:28.316Z,99.99
2018-05-23T04:37:28.352Z,99.99
2018-05-23T04:38:28.358Z,99.99
2018-05-23T04:39:28.382Z,99.99
2018-05-23T04:40:28.427Z,99.99
2018-05-23T04:41:28.434Z,99.99
2018-05-23T04:42:28.477Z,99.99
2018-05-23T04:43:28.489Z,99.99
2018-05-23T04:44:28.506Z,99.99
2018-05-23T04:45:28.525Z,99.99
2018-05-23T04:46:28.574Z,99.99
2018-05-23T04:47:28.578Z,99.99
2018-05-23T04:48:28.613Z,99.99
2018-05-23T04:49:28.664Z,99.99
2018-05-23T04:50:28.662Z,99.99
2018-05-23T04:51:28.696Z,99.99
2018-05-23T04:52:28.767Z,99.99
2018-05-23T04:53:28.721Z,99.99
2018-05-23T04:54:28.746Z,99.99
2018-05-23T04:55:28.775Z,99.99
2018-05-23T04:56:28.797Z,99.99
2018-05-23T04:57:28.823Z,99.99
2018-05-23T04:58:28.845Z,99.99
2018-05-23T04:59:28.869Z,99.99
2018-05-23T05:00:28.895Z,99.99
2018-05-23T05:01:28.915Z,99.99
2018-05-23T05:02:28.940Z,99.99
2018-05-23T05:03:28.972Z,99.99
2018-05-23T05:04:28.985Z,99.99
2018-05-23T05:05:29.008Z,99.99
2018-05-23T05:06:29.046Z,99.99
2018-05-23T05:07:29.061Z,99.99
2018-05-23T05:08:29.079Z,99.99
2018-05-23T05:09:29.114Z,99.99
2018-05-23T05:10:29.141Z,99.99
2018-05-23T05:11:29.158Z,99.99
2018-05-23T05:12:29.184Z,99.99
2018-05-23T05:13:29.204Z,99.99
2018-05-23T05:14:29.223Z,99.99
2018-05-23T05:15:29.257Z,99.99
2018-05-23T05:16:29.274Z,99.99
2018-05-23T05:17:29.298Z,99.99
2018-05-23T05:18:29.324Z,99.99
2018-05-23T05:19:29.346Z,99.99
2018-05-23T05:20:29.366Z,99.99
2018-05-23T05:21:29.413Z,99.99
2018-05-23T05:22:29.413Z,99.99
2018-05-23T05:23:29.439Z,99.99
2018-05-23T05:24:29.474Z,99.99
2018-05-23T05:25:29.489Z,99.99
2018-05-23T05:26:29.515Z,99.99
2018-05-23T05:27:29.549Z,99.99
2018-05-23T05:28:29.563Z,99.99
2018-05-23T05:29:29.580Z,99.99
2018-05-23T05:30:29.613Z,99.99
2018-05-23T05:31:29.636Z,99.99
2018-05-23T05:32:29.661Z,99.99
2018-05-23T05:33:29.677Z,99.99
2018-05-23T05:34:29.703Z,99.99
2018-05-23T05:35:29.735Z,99.99
2018-05-23T05:36:29.758Z,99.99
2018-05-23T05:37:29.778Z,99.99
2018-05-23T05:38:29.795Z,99.99
2018-05-23T05:39:29.825Z,99.99
2018-05-23T05:40:29.873Z,99.99
2018-05-23T05:41:29.878Z,99.99
2018-05-23T05:42:29.915Z,99.99
2018-05-23T05:43:29.923Z,99.99
2018-05-23T05:44:29.947Z,99.99
2018-05-23T05:45:29.971Z,99.99
2018-05-23T05:46:29.994Z,99.99
2018-05-23T05:47:30.020Z,99.99
2018-05-23T05:48:30.044Z,99.99
2018-05-23T05:49:30.063Z,99.99
2018-05-23T05:50:30.091Z,99.99
2018-05-23T05:51:30.109Z,99.99
2018-05-23T05:52:30.138Z,99.99
2018-05-23T05:53:30.156Z,99.99
2018-05-23T05:54:30.189Z,99.99
2018-05-23T05:55:30.208Z,99.99
2018-05-23T05:56:30.245Z,99.99
2018-05-23T05:57:30.260Z,99.99
2018-05-23T05:58:30.281Z,99.99
2018-05-23T05:59:30.299Z,99.99
2018-05-23T06:00:30.334Z,99.99
2018-05-23T06:01:30.362Z,99.99
2018-05-23T06:02:30.384Z,99.99
2018-05-23T06:03:30.406Z,99.99
2018-05-23T06:04:30.426Z,99.99
2018-05-23T06:05:30.451Z,99.99
2018-05-23T06:06:30.474Z,99.99
2018-05-23T06:07:30.503Z,99.99
2018-05-23T06:08:30.521Z,99.99
2018-05-23T06:09:30.621Z,99.99
2018-05-23T06:10:30.574Z,99.99
2018-05-23T06:11:30.609Z,99.99
2018-05-23T06:12:30.616Z,99.99
2018-05-23T06:13:30.640Z,99.99
2018-05-23T06:14:30.670Z,99.99
2018-05-23T06:15:30.696Z,99.99
2018-05-23T06:16:30.755Z,99.99
2018-05-23T06:17:30.749Z,99.99
2018-05-23T06:18:30.768Z,99.99
2018-05-23T06:19:30.784Z,99.99
2018-05-23T06:20:30.815Z,99.99
2018-05-23T06:21:30.837Z,99.99
2018-05-23T06:22:30.870Z,99.99
2018-05-23T06:23:30.883Z,99.99
2018-05-23T06:24:30.936Z,99.99
2018-05-23T06:25:30.936Z,99.99
2018-05-23T06:26:30.958Z,99.99
2018-05-23T06:27:30.986Z,99.99
2018-05-23T06:28:31.011Z,99.99
2018-05-23T06:29:31.031Z,99.99
2018-05-23T06:30:31.178Z,99.99
2018-05-23T06:31:31.076Z,99.99
2018-05-23T06:32:31.114Z,99.99
2018-05-23T06:33:31.194Z,99.99
2018-05-23T06:34:31.152Z,99.99
2018-05-23T06:35:31.185Z,99.99
2018-05-23T06:36:31.332Z,99.99
2018-05-23T06:37:31.219Z,99.99
2018-05-23T06:38:31.249Z,99.99
2018-05-23T06:39:31.277Z,99.99
2018-05-23T06:40:31.303Z,99.99
2018-05-23T06:41:31.365Z,99.99
2018-05-23T06:42:31.348Z,99.99
2018-05-23T06:43:31.379Z,99.99
2018-05-23T06:44:31.394Z,99.99
2018-05-23T06:45:31.425Z,99.99
2018-05-23T06:46:31.444Z,99.99
2018-05-23T06:47:31.473Z,99.99
2018-05-23T06:48:31.496Z,99.99
2018-05-23T06:49:31.518Z,99.99
2018-05-23T06:50:31.541Z,99.99
2018-05-23T06:51:31.582Z,99.99
2018-05-23T06:52:31.587Z,99.99
2018-05-23T06:53:31.618Z,99.99
2018-05-23T06:54:31.636Z,99.99
2018-05-23T06:55:31.701Z,99.99
2018-05-23T06:56:31.693Z,99.99
2018-05-23T06:57:31.727Z,99.99
2018-05-23T06:58:31.752Z,99.99
2018-05-23T06:59:31.761Z,99.99
2018-05-23T07:00:31.787Z,99.99
2018-05-23T07:01:31.813Z,99.99
2018-05-23T07:02:31.836Z,99.99
2018-05-23T07:03:31.888Z,99.99
2018-05-23T07:04:31.880Z,99.99
2018-05-23T07:05:31.917Z,99.99
2018-05-23T07:06:31.936Z,99.99
2018-05-23T07:07:31.961Z,99.99
2018-05-23T07:08:31.986Z,99.99
2018-05-23T07:09:32.031Z,99.99
2018-05-23T07:10:32.027Z,99.99
2018-05-23T07:11:32.070Z,99.99
2018-05-23T07:12:32.076Z,99.99
2018-05-23T07:13:32.111Z,99.99
2018-05-23T07:14:32.117Z,99.99
2018-05-23T07:15:32.157Z,99.99
2018-05-23T07:16:32.172Z,99.99
2018-05-23T07:17:32.204Z,99.99
2018-05-23T07:18:32.224Z,99.99
2018-05-23T07:19:32.242Z,99.99
2018-05-23T07:20:32.271Z,99.99
2018-05-23T07:21:32.303Z,99.99
2018-05-23T07:22:32.331Z,99.99
2018-05-23T07:23:32.372Z,99.99
2018-05-23T07:24:32.374Z,99.99
2018-05-23T07:25:32.422Z,99.99
2018-05-23T07:26:32.425Z,99.99
2018-05-23T07:27:32.457Z,99.99
2018-05-23T07:28:32.465Z,99.99
2018-05-23T07:29:32.488Z,99.99
2018-05-23T07:30:32.504Z,99.99
2018-05-23T07:31:32.548Z,99.99
2018-05-23T07:32:32.562Z,99.99
2018-05-23T07:33:32.589Z,99.99
2018-05-23T07:34:32.601Z,99.99
2018-05-23T07:35:32.646Z,99.99
2018-05-23T07:36:32.655Z,99.99
2018-05-23T07:37:32.686Z,99.99
2018-05-23T07:38:32.707Z,99.99
2018-05-23T07:39:32.733Z,99.99
2018-05-23T07:40:32.755Z,99.99
2018-05-23T07:41:32.778Z,99.99
2018-05-23T07:42:32.801Z,99.99
2018-05-23T07:43:32.831Z,99.99
2018-05-23T07:44:32.845Z,99.99
2018-05-23T07:45:32.878Z,99.99
2018-05-23T07:46:32.903Z,99.99
2018-05-23T07:47:32.920Z,99.99
2018-05-23T07:48:32.948Z,99.99
2018-05-23T07:49:32.972Z,99.99
2018-05-23T07:50:33.015Z,99.99
2018-05-23T07:51:33.023Z,99.99
2018-05-23T07:52:33.046Z,99.99
2018-05-23T07:53:33.061Z,99.99
2018-05-23T07:54:33.095Z,99.99
2018-05-23T07:55:33.120Z,99.99
2018-05-23T07:56:33.225Z,99.99
2018-05-23T07:57:33.161Z,99.99
2018-05-23T07:58:33.193Z,99.99
2018-05-23T07:59:33.227Z,99.99
2018-05-23T08:00:33.268Z,99.99
2018-05-23T08:01:33.275Z,99.99
2018-05-23T08:02:33.285Z,99.99
2018-05-23T08:03:33.311Z,99.99
2018-05-23T08:04:33.336Z,99.99
2018-05-23T08:05:33.359Z,99.99
2018-05-23T08:06:33.380Z,99.99
2018-05-23T08:07:33.406Z,99.99
2018-05-23T08:08:33.463Z,99.99
2018-05-23T08:09:33.461Z,99.99
2018-05-23T08:10:33.475Z,99.99
2018-05-23T08:11:33.507Z,99.99
2018-05-23T08:12:33.536Z,99.99
2018-05-23T08:13:33.553Z,99.99
2018-05-23T08:14:33.802Z,99.99
2018-05-23T08:15:33.596Z,99.99
2018-05-23T08:16:33.625Z,99.99
2018-05-23T08:17:33.654Z,99.99
2018-05-23T08:18:33.677Z,99.99
2018-05-23T08:19:33.709Z,99.99
2018-05-23T08:20:33.726Z,99.99
2018-05-23T08:21:33.761Z,99.99
2018-05-23T08:22:33.771Z,99.99
2018-05-23T08:23:33.800Z,99.99
2018-05-23T08:24:33.825Z,99.99
2018-05-23T08:25:33.844Z,99.99
2018-05-23T08:26:33.880Z,99.99
2018-05-23T08:27:33.897Z,99.99
2018-05-23T08:28:33.917Z,99.99
2018-05-23T08:29:33.949Z,99.99
2018-05-23T08:30:33.967Z,99.99
2018-05-23T08:31:33.989Z,99.99
2018-05-23T08:32:34.046Z,99.99
2018-05-23T08:33:34.039Z,99.99
2018-05-23T08:34:34.068Z,99.99
2018-05-23T08:35:34.097Z,99.99
2018-05-23T08:36:34.116Z,99.99
2018-05-23T08:37:34.134Z,99.99
2018-05-23T08:38:34.165Z,99.99
2018-05-23T08:39:34.190Z,99.99
2018-05-23T08:40:34.213Z,99.99
2018-05-23T08:41:34.243Z,99.99
2018-05-23T08:42:34.276Z,99.49
2018-05-23T08:43:34.292Z,99.68
2018-05-23T08:44:34.323Z,99.99
2018-05-23T08:45:34.344Z,99.78
2018-05-23T08:46:34.365Z,99.49
2018-05-23T08:47:34.449Z,99.01
2018-05-23T08:48:34.413Z,99.99
2018-05-23T08:49:34.439Z,99.30
2018-05-23T08:50:34.460Z,99.99
2018-05-23T08:51:34.492Z,99.49
2018-05-23T08:52:34.506Z,99.30
2018-05-23T08:53:34.557Z,99.58
2018-05-23T08:54:34.553Z,99.99
2018-05-23T08:55:34.582Z,99.99
2018-05-23T08:56:34.607Z,99.99
2018-05-23T08:57:34.626Z,99.99
2018-05-23T08:58:34.656Z,99.99
2018-05-23T08:59:34.692Z,99.99
2018-05-23T09:00:34.703Z,99.99
2018-05-23T09:01:34.733Z,99.25
2018-05-23T09:02:34.753Z,98.77
2018-05-23T09:03:34.778Z,99.99
2018-05-23T09:04:34.801Z,99.92
2018-05-23T09:05:34.837Z,99.54
2018-05-23T09:06:35.085Z,99.35
2018-05-23T09:07:34.882Z,99.06
2018-05-23T09:08:34.913Z,98.10
2018-05-23T09:09:34.926Z,97.42
2018-05-23T09:10:34.965Z,97.33
2018-05-23T09:11:34.979Z,96.66
2018-05-23T09:12:35.081Z,96.90
2018-05-23T09:13:35.037Z,97.67
2018-05-23T09:14:35.050Z,97.28
2018-05-23T09:15:35.085Z,97.28
2018-05-23T09:16:35.115Z,97.67
2018-05-23T09:17:35.139Z,95.89
2018-05-23T09:18:35.150Z,94.15
2018-05-23T09:19:35.172Z,93.77
2018-05-23T09:20:35.198Z,92.52
2018-05-23T09:21:35.234Z,90.89
2018-05-23T09:22:35.255Z,92.04
2018-05-23T09:23:35.273Z,92.33
2018-05-23T09:24:35.299Z,92.33
2018-05-23T09:25:35.479Z,91.85
2018-05-23T09:26:35.351Z,92.43
2018-05-23T09:27:35.373Z,92.81
2018-05-23T09:28:35.434Z,91.94
2018-05-23T09:29:35.428Z,91.75
2018-05-23T09:30:35.451Z,91.94
2018-05-23T09:31:35.474Z,91.46
2018-05-23T09:32:35.513Z,91.85
2018-05-23T09:33:35.531Z,92.33
2018-05-23T09:34:35.550Z,92.81
2018-05-23T09:35:35.577Z,92.61
2018-05-23T09:36:35.599Z,92.91
2018-05-23T09:37:35.624Z,92.52
2018-05-23T09:38:35.712Z,92.13
2018-05-23T09:39:35.679Z,92.61
2018-05-23T09:40:35.717Z,91.56
2018-05-23T09:41:35.726Z,91.46
2018-05-23T09:42:35.751Z,92.23
2018-05-23T09:43:35.778Z,92.04
2018-05-23T09:44:35.822Z,91.31
2018-05-23T09:45:35.846Z,91.41
2018-05-23T09:46:35.851Z,91.31
2018-05-23T09:47:35.881Z,90.79
2018-05-23T09:48:35.915Z,90.79
2018-05-23T09:49:35.946Z,90.73
2018-05-23T09:50:36.019Z,91.03
2018-05-23T09:51:35.990Z,92.28
2018-05-23T09:52:36.017Z,92.18
2018-05-23T09:53:36.027Z,91.51
2018-05-23T09:54:36.057Z,90.73
2018-05-23T09:55:36.089Z,89.97
2018-05-23T09:56:36.117Z,90.16
2018-05-23T09:57:36.132Z,89.68
2018-05-23T09:58:36.157Z,89.39
2018-05-23T09:59:36.184Z,87.71
2018-05-23T10:00:36.224Z,87.90
2018-05-23T10:01:36.346Z,88.33
2018-05-23T10:02:36.263Z,87.85
2018-05-23T10:03:36.283Z,87.76
2018-05-23T10:04:36.330Z,88.43
2018-05-23T10:05:36.341Z,89.01
2018-05-23T10:06:36.371Z,88.71
2018-05-23T10:07:36.399Z,88.53
2018-05-23T10:08:36.424Z,89.49
2018-05-23T10:09:36.448Z,88.81
2018-05-23T10:10:36.487Z,87.56
2018-05-23T10:11:36.501Z,86.99
2018-05-23T10:12:36.531Z,86.41
2018-05-23T10:13:36.541Z,86.31
2018-05-23T10:14:36.572Z,86.07
2018-05-23T10:15:36.614Z,86.65
2018-05-23T10:16:36.619Z,86.93
2018-05-23T10:17:36.660Z,87.80
2018-05-23T10:18:36.676Z,87.66
2018-05-23T10:19:36.705Z,87.70
2018-05-23T10:20:36.731Z,87.60
2018-05-23T10:21:36.942Z,90.20
2018-05-23T10:22:36.781Z,88.67
2018-05-23T10:23:36.800Z,88.47
2018-05-23T10:24:36.829Z,87.12
2018-05-23T10:25:36.864Z,88.18
2018-05-23T10:26:36.889Z,87.03
2018-05-23T10:27:36.911Z,87.03
2018-05-23T10:28:36.935Z,87.03
2018-05-23T10:29:36.958Z,87.60
2018-05-23T10:30:36.979Z,86.65
2018-05-23T10:31:37.029Z,89.43
2018-05-23T10:32:37.045Z,87.90
2018-05-23T10:33:37.070Z,89.63
2018-05-23T10:34:37.122Z,90.40
2018-05-23T10:35:37.118Z,90.50
2018-05-23T10:36:37.140Z,91.94
2018-05-23T10:37:37.250Z,92.22
2018-05-23T10:38:37.202Z,93.48
2018-05-23T10:39:37.214Z,91.55
2018-05-23T10:40:37.248Z,91.55
2018-05-23T10:41:37.276Z,91.46
2018-05-23T10:42:37.299Z,91.07
2018-05-23T10:43:37.322Z,89.72
2018-05-23T10:44:37.353Z,89.15
2018-05-23T10:45:37.370Z,87.80
2018-05-23T10:46:37.401Z,88.57
2018-05-23T10:47:37.447Z,88.67
2018-05-23T10:48:37.455Z,87.90
2018-05-23T10:49:37.542Z,88.18
2018-05-23T10:50:37.503Z,88.57
2018-05-23T10:51:37.533Z,87.90
2018-05-23T10:52:37.557Z,88.85
2018-05-23T10:53:37.578Z,87.22
2018-05-23T10:54:37.610Z,85.97
2018-05-23T10:55:37.635Z,85.68
2018-05-23T10:56:37.655Z,86.45
2018-05-23T10:57:37.684Z,88.28
2018-05-23T10:58:37.709Z,87.41
2018-05-23T10:59:37.735Z,87.03
2018-05-23T11:00:37.759Z,86.74
2018-05-23T11:01:37.797Z,85.68
2018-05-23T11:02:37.817Z,87.22
2018-05-23T11:03:37.843Z,87.03
2018-05-23T11:04:37.891Z,84.72
2018-05-23T11:05:37.910Z,86.01
2018-05-23T11:06:37.920Z,86.26
2018-05-23T11:07:37.947Z,86.35
2018-05-23T11:08:37.972Z,86.59
2018-05-23T11:09:38.002Z,87.84
2018-05-23T11:10:38.020Z,88.23
2018-05-23T11:11:38.052Z,89.29
2018-05-23T11:12:38.082Z,90.92
2018-05-23T11:13:38.107Z,89.39
2018-05-23T11:14:38.130Z,88.13
2018-05-23T11:15:38.153Z,86.69
2018-05-23T11:16:38.181Z,86.59
2018-05-23T11:17:38.214Z,86.69
2018-05-23T11:18:38.245Z,85.53
2018-05-23T11:19:38.280Z,85.53
2018-05-23T11:20:38.285Z,84.38
2018-05-23T11:21:38.318Z,83.31
2018-05-23T11:22:38.336Z,83.80
2018-05-23T11:23:38.368Z,82.54
2018-05-23T11:24:38.395Z,82.45
2018-05-23T11:25:38.420Z,83.22
2018-05-23T11:26:38.450Z,83.80
2018-05-23T11:27:38.527Z,84.95
2018-05-23T11:28:38.500Z,84.09
2018-05-23T11:29:38.561Z,84.95
2018-05-23T11:30:38.552Z,85.24
2018-05-23T11:31:38.584Z,84.86
2018-05-23T11:32:38.602Z,85.53
2018-05-23T11:33:38.633Z,86.40
2018-05-23T11:34:38.662Z,85.34
2018-05-23T11:35:38.693Z,87.26
2018-05-23T11:36:38.712Z,84.38
2018-05-23T11:37:38.734Z,84.66
2018-05-23T11:38:38.761Z,85.63
2018-05-23T11:39:38.805Z,85.53
2018-05-23T11:40:38.813Z,85.53
2018-05-23T11:41:38.874Z,85.05
2018-05-23T11:42:38.872Z,85.63
2018-05-23T11:43:38.895Z,84.09
2018-05-23T11:44:38.921Z,83.70
2018-05-23T11:45:38.952Z,83.41
2018-05-23T11:46:39.006Z,85.34
2018-05-23T11:47:39.004Z,84.95
2018-05-23T11:48:39.034Z,84.52
2018-05-23T11:49:39.060Z,83.94
2018-05-23T11:50:39.085Z,83.36
2018-05-23T11:51:39.123Z,82.68
2018-05-23T11:52:39.137Z,82.87
2018-05-23T11:53:39.164Z,82.39
2018-05-23T11:54:39.255Z,82.39
2018-05-23T11:55:39.218Z,82.59
2018-05-23T11:56:39.239Z,82.97
2018-05-23T11:57:39.264Z,82.49
2018-05-23T11:58:39.295Z,81.91
2018-05-23T11:59:39.366Z,82.87
2018-05-23T12:00:39.348Z,85.47
2018-05-23T12:01:39.422Z,84.42
2018-05-23T12:02:39.408Z,85.57
2018-05-23T12:03:39.426Z,85.77
2018-05-23T12:04:39.456Z,85.57
2018-05-23T12:05:39.480Z,85.47
2018-05-23T12:06:39.517Z,85.47
2018-05-23T12:07:39.534Z,85.67
2018-05-23T12:08:39.561Z,85.47
2018-05-23T12:09:39.586Z,84.70
2018-05-23T12:10:39.759Z,85.96
2018-05-23T12:11:39.643Z,85.96
2018-05-23T12:12:39.681Z,85.77
2018-05-23T12:13:39.691Z,86.15
2018-05-23T12:14:39.721Z,85.71
2018-05-23T12:15:39.742Z,86.48
2018-05-23T12:16:39.813Z,86.29
2018-05-23T12:17:39.807Z,86.58
2018-05-23T12:18:39.818Z,86.10
2018-05-23T12:19:39.867Z,86.19
2018-05-23T12:20:39.878Z,86.19
2018-05-23T12:21:39.906Z,87.54
2018-05-23T12:22:39.935Z,86.96
2018-05-23T12:23:39.954Z,87.06
2018-05-23T12:24:39.989Z,86.87
2018-05-23T12:25:40.012Z,86.87
2018-05-23T12:26:40.040Z,87.21
2018-05-23T12:27:40.064Z,87.79
2018-05-23T12:28:40.087Z,87.60
2018-05-23T12:29:40.115Z,86.48
2018-05-23T12:30:40.140Z,86.29
2018-05-23T12:31:40.236Z,86.68
2018-05-23T12:32:40.197Z,86.68
2018-05-23T12:33:40.225Z,87.06
2018-05-23T12:34:40.252Z,86.96
2018-05-23T12:35:40.281Z,86.77
2018-05-23T12:36:40.299Z,85.71
2018-05-23T12:37:40.337Z,86.25
2018-05-23T12:38:40.363Z,86.19
2018-05-23T12:39:40.390Z,86.48
2018-05-23T12:40:40.413Z,86.10
2018-05-23T12:41:40.441Z,86.29
2018-05-23T12:42:40.476Z,85.71
2018-05-23T12:43:40.494Z,85.23
2018-05-23T12:44:40.523Z,85.03
2018-05-23T12:45:40.550Z,84.46
2018-05-23T12:46:40.567Z,84.55
2018-05-23T12:47:40.602Z,83.88
2018-05-23T12:48:40.629Z,84.41
2018-05-23T12:49:40.655Z,84.50
2018-05-23T12:50:40.686Z,85.52
2018-05-23T12:51:40.704Z,84.50
2018-05-23T12:52:40.733Z,84.11